الصفحة الرئيسية
METAR-TAF:

METAR-TAF

مطار :

أوشويا, الأرجنتين

دائرة عرض: 54-48S, خط طول: 068-19W, ارتفاع: 16 متر

مراقبة الطقس الحالي

تاريخ ووقت الإصدار 22 دقيقة قبل الساعة 03:00UTC
ريح 20 عقدة من الجنوب الغربي
درجة الحرارة 2°درجة مئوية
الرطوبة 93%
ضغط 1011 hPa
الرؤية 10 كم أو أكثر
غيوم متفرقة على ارتفاع 1000 قدم
غيوم مفككة على ارتفاع 2500 قدم
ثلوج

METAR: SAWH 240300Z 23020KT 9999 SN SCT010 BKN025 02/01 Q1011

زمن: 00:22 (03:22 UTC)

توقعات

تاريخ ووقت الإصدار 4ساعات و 22 دقيقة قبل الساعة 23:00UTC
التوقعات صالحة من24 الساعة 00 UTC إلى 24 الساعة 24 UTC
ريح 20 عقدة من الجنوب الغربي
الرؤية 10 كم أو أكثر
غيوم مفككة على ارتفاع 1000 قدم
غيوم مفككة على ارتفاع 3000 قدم
زخات من الأمطار الخفيفة
مؤقت
من 24 الساعة 00 UTC إلى 24 الساعة 06 UTC
ريح 20 عقدة من الجنوب الغربي تتزايد حتى 35 عقدة
ثلوج خفيفة, مطر
أصبح
من 24 الساعة 07 UTC إلى 24 الساعة 09 UTC
ريح 15 عقدة من الغرب/الجنوب الغربي
غيوم مفككة على ارتفاع 2000 قدم
غيوم مفككة على ارتفاع 4000 قدم

TAF: SAWH 232300Z 2400/2424 23020KT 9999 -SHRA BKN010 BKN030 TX02/2418Z TNM01/2410Z TEMPO 2400/2406 23020G35KT -SNRA BECMG 2407/2409 25015KT BKN020 BKN040

أرصاد الطقس والتوقعات من أكثر من 4000 مطار (تقارير الطقس للمطار METAR والتنبؤ بالطقس بالمطارTAF).

المحطات المتاحة هي النقط الصفراء والحمراء على الخريطة.

حرك المؤشر فوق النقطة لمعرفة اسم المحطة.

ثم انقر لمعرفة أرصاد وتوقعات الطقس.

لتغيير الخارطة: اضغط على الأزرار الخضراء مع رمز الصليب الأسود للتكبير. على الزر الأخضر مع شرطة للتصغير، أو على الأسهم الخضراء للخرائط المجاورة.


METAR-TAF: